This is the latest recevied weather packets stored in our database for station/object PY3MO-13. If no packets are shown the sender has not sent any weather packets the latest 1 day(s).
| Time | Temp. | Humidity | Pressure | Rain* | Wind** | Luminosity | Snow |
|---|---|---|---|---|---|---|---|
| 1778100436 | 24.44° C | 62% | 1015.9 hPa | 0 mm | - | - | - |
| 1778099832 | 25° C | 61% | 1016 hPa | 0 mm | - | - | - |
| 1778098807 | 26.11° C | 58% | 1016.1 hPa | 0 mm | - | - | - |
| 1778097008 | 28.33° C | 50% | 1016.4 hPa | 0 mm | - | - | - |
| 1778096407 | 28.33° C | 49% | 1016.2 hPa | 0 mm | - | - | - |
| 1778095808 | 28.89° C | 47% | 1016.3 hPa | 0 mm | - | - | - |
| 1778095035 | 28.89° C | 48% | 1016.2 hPa | 0 mm | - | - | - |
| 1778094608 | 28.33° C | 49% | 1016.2 hPa | 0 mm | - | - | - |
| 1778092932 | 30° C | 46% | 1016.4 hPa | 0 mm | - | - | - |
| 1778092808 | 30° C | 46% | 1016.3 hPa | 0 mm | - | - | - |
| 1778092207 | 30.56° C | 48% | 1016.5 hPa | 0 mm | - | - | - |
| 1778091732 | 28.89° C | 50% | 1016.4 hPa | 0 mm | - | - | - |
| 1778091007 | 29.44° C | 48% | 1016.4 hPa | 0 mm | - | - | - |
| 1778090832 | 30° C | 46% | 1016.7 hPa | 0 mm | - | - | - |
| 1778090233 | 30° C | 48% | 1016.7 hPa | 0 mm | - | - | - |
| 1778089933 | 30° C | 49% | 1016.7 hPa | 0 mm | - | - | - |
| 1778089208 | 29.44° C | 47% | 1016.8 hPa | 0 mm | - | - | - |
| 1778088607 | 29.44° C | 48% | 1016.9 hPa | 0 mm | - | - | - |
| 1778088432 | 29.44° C | 48% | 1016.9 hPa | 0 mm | - | - | - |
| 1778088008 | 29.44° C | 50% | 1017 hPa | 0 mm | - | - | - |
| 1778087407 | 28.89° C | 47% | 1017.1 hPa | 0 mm | - | - | - |
| 1778086932 | 28.89° C | 48% | 1017.2 hPa | 0 mm | - | - | - |
| 1778083931 | 28.89° C | 51% | 1017.9 hPa | 0 mm | - | - | - |
| 1778083332 | 28.89° C | 52% | 1018.1 hPa | 0 mm | - | - | - |
| 1778082431 | 28.89° C | 53% | 1018.4 hPa | 0 mm | - | - | - |
* Rain latest hour (hover to see other rain measurements)
** Current wind speed in m/s (hover to see current wind gust speed)